Time;durP1;ratioP1;P1;durP2;ratioP2;P2;SDS_P1;SDS_P2;PMS_P1;PMS_P2;Temp;Humidity;BMP_temperature;BMP_pressure;BME280_temperature;BME280_humidity;BME280_pressure;Samples;Min_cycle;Max_cycle;Signal;HPM_P1;HPM_P2
2021/05/16 00:00:36;;;;;;;7.10;5.30;;;;;;;;;;5051090;28;20111;-81
2021/05/16 00:03:02;;;;;;;6.63;4.90;;;;;;;;;;5051241;28;20041;-81
2021/05/16 00:05:29;;;;;;;6.78;5.13;;;;;;;;;;5052226;28;20067;-81
2021/05/16 00:07:55;;;;;;;6.65;4.95;;;;;;;;;;5051203;28;20104;-81
2021/05/16 00:10:21;;;;;;;7.15;5.00;;;;;;;;;;5052236;28;20041;-81
2021/05/16 00:12:47;;;;;;;7.38;6.00;;;;;;;;;;5050902;28;20033;-81
2021/05/16 00:15:16;;;;;;;8.00;5.90;;;;;;;;;;5034606;28;20141;-81
2021/05/16 00:17:42;;;;;;;8.30;5.93;;;;;;;;;;5050868;28;20111;-81
2021/05/16 00:20:10;;;;;;;8.40;6.25;;;;;;;;;;5052192;28;20037;-81
2021/05/16 00:22:38;;;;;;;8.63;6.30;;;;;;;;;;5052073;28;20133;-81
2021/05/16 00:25:07;;;;;;;8.60;6.50;;;;;;;;;;5034306;28;20037;-81
2021/05/16 00:27:33;;;;;;;10.57;7.50;;;;;;;;;;5050701;28;20041;-81
2021/05/16 00:29:59;;;;;;;10.05;7.13;;;;;;;;;;5050875;28;20083;-81
2021/05/16 00:32:25;;;;;;;9.55;6.82;;;;;;;;;;5052165;28;20033;-81
2021/05/16 00:34:52;;;;;;;10.50;7.57;;;;;;;;;;5050885;28;20041;-81
2021/05/16 00:37:18;;;;;;;13.35;8.05;;;;;;;;;;5050684;28;20048;-82
2021/05/16 00:39:44;;;;;;;9.95;7.60;;;;;;;;;;5051919;28;20040;-81
2021/05/16 00:42:10;;;;;;;10.65;7.38;;;;;;;;;;5051648;28;20048;-82
2021/05/16 00:44:36;;;;;;;11.90;7.95;;;;;;;;;;5050654;28;20432;-82
2021/05/16 00:47:02;;;;;;;12.77;8.68;;;;;;;;;;5067236;28;20124;-81
2021/05/16 00:49:28;;;;;;;12.13;8.60;;;;;;;;;;5050771;28;20036;-82
2021/05/16 00:51:54;;;;;;;11.13;8.07;;;;;;;;;;5052078;28;20175;-81
2021/05/16 00:54:20;;;;;;;10.93;8.07;;;;;;;;;;5050605;28;20041;-81
2021/05/16 00:56:46;;;;;;;11.52;7.82;;;;;;;;;;5051540;28;20037;-81
2021/05/16 00:59:12;;;;;;;11.60;8.88;;;;;;;;;;5055875;28;20059;-80
2021/05/16 01:01:38;;;;;;;14.02;9.80;;;;;;;;;;5071074;28;20049;-81
2021/05/16 01:04:05;;;;;;;14.43;9.90;;;;;;;;;;5055620;28;20041;-81
2021/05/16 01:06:31;;;;;;;11.60;9.20;;;;;;;;;;5055533;28;20069;-81
2021/05/16 01:08:58;;;;;;;12.27;9.27;;;;;;;;;;5054504;28;20044;-81
2021/05/16 01:11:31;;;;;;;12.85;9.20;;;;;;;;;;5038099;28;20123;-81
2021/05/16 01:13:57;;;;;;;13.93;9.63;;;;;;;;;;5038822;28;20522;-81
2021/05/16 01:16:23;;;;;;;13.65;9.63;;;;;;;;;;5037813;28;20033;-82
2021/05/16 01:18:49;;;;;;;16.10;9.88;;;;;;;;;;5055323;28;20068;-81
2021/05/16 01:21:16;;;;;;;13.43;9.18;;;;;;;;;;5055415;28;20037;-81
2021/05/16 01:23:49;;;;;;;14.13;10.13;;;;;;;;;;5053926;28;20040;-81
2021/05/16 01:26:15;;;;;;;11.93;8.80;;;;;;;;;;5055281;28;20041;-82
2021/05/16 01:28:43;;;;;;;14.10;9.40;;;;;;;;;;5037455;28;20361;-82
2021/05/16 01:31:09;;;;;;;15.57;10.80;;;;;;;;;;5037684;28;20037;-81
2021/05/16 01:33:35;;;;;;;15.32;10.18;;;;;;;;;;5037441;28;20040;-86
2021/05/16 01:36:01;;;;;;;15.80;10.60;;;;;;;;;;5037510;28;20408;-84
2021/05/16 01:38:27;;;;;;;14.90;10.40;;;;;;;;;;5053906;28;20041;-81
2021/05/16 01:40:54;;;;;;;15.00;10.38;;;;;;;;;;5055238;28;20048;-82
2021/05/16 01:43:20;;;;;;;14.90;10.80;;;;;;;;;;5053757;28;20039;-81
2021/05/16 01:45:46;;;;;;;15.52;11.18;;;;;;;;;;5053627;28;20489;-81
2021/05/16 01:48:12;;;;;;;14.27;10.60;;;;;;;;;;5053645;28;20124;-81
2021/05/16 01:50:39;;;;;;;15.23;10.95;;;;;;;;;;5053479;28;20138;-80
2021/05/16 01:53:06;;;;;;;18.40;11.95;;;;;;;;;;5037168;28;20452;-81
2021/05/16 01:55:32;;;;;;;15.20;10.27;;;;;;;;;;5053560;28;20041;-81
2021/05/16 01:57:58;;;;;;;16.52;11.43;;;;;;;;;;5053622;28;20550;-81
2021/05/16 02:00:28;;;;;;;13.63;10.18;;;;;;;;;;5053517;28;20551;-82
2021/05/16 02:02:55;;;;;;;18.10;11.75;;;;;;;;;;5054711;28;20140;-81
2021/05/16 02:05:21;;;;;;;16.65;11.15;;;;;;;;;;5054330;28;20097;-80
2021/05/16 02:07:48;;;;;;;19.50;12.68;;;;;;;;;;5052887;28;20048;-82
2021/05/16 02:10:14;;;;;;;17.73;11.93;;;;;;;;;;5054366;28;20396;-82
2021/05/16 02:12:40;;;;;;;18.27;11.60;;;;;;;;;;5036629;28;20037;-81
2021/05/16 02:15:08;;;;;;;16.55;11.43;;;;;;;;;;5054423;28;20106;-81
2021/05/16 02:17:34;;;;;;;16.95;11.57;;;;;;;;;;5036724;28;20048;-81
2021/05/16 02:20:00;;;;;;;20.52;12.35;;;;;;;;;;5053129;28;20064;-82
2021/05/16 02:22:26;;;;;;;18.70;12.07;;;;;;;;;;5053184;28;20044;-82
2021/05/16 02:24:52;;;;;;;17.48;11.77;;;;;;;;;;5054112;28;20033;-82
2021/05/16 02:27:18;;;;;;;21.60;12.75;;;;;;;;;;5052890;28;20044;-80
2021/05/16 02:29:44;;;;;;;22.23;12.43;;;;;;;;;;5054093;28;20392;-82
2021/05/16 02:32:10;;;;;;;17.77;12.18;;;;;;;;;;5052809;28;20365;-81
2021/05/16 02:34:36;;;;;;;22.98;13.48;;;;;;;;;;5036181;28;20037;-82
2021/05/16 02:37:02;;;;;;;19.50;12.93;;;;;;;;;;5052790;28;20033;-83
2021/05/16 02:39:28;;;;;;;19.50;13.10;;;;;;;;;;5052883;28;20279;-83
2021/05/16 02:41:54;;;;;;;19.17;12.52;;;;;;;;;;5052585;28;20045;-82
2021/05/16 02:44:20;;;;;;;21.35;13.27;;;;;;;;;;5052665;28;20041;-82
2021/05/16 02:46:47;;;;;;;20.63;12.98;;;;;;;;;;5036027;28;20037;-82
2021/05/16 02:49:13;;;;;;;19.83;13.15;;;;;;;;;;5052414;28;20041;-82
2021/05/16 02:51:39;;;;;;;20.30;11.70;;;;;;;;;;5035986;28;20435;-82
2021/05/16 02:54:05;;;;;;;20.30;12.82;;;;;;;;;;5053615;28;20098;-81
2021/05/16 02:56:31;;;;;;;18.20;12.70;;;;;;;;;;5052440;28;20040;-82
2021/05/16 02:58:58;;;;;;;19.67;12.82;;;;;;;;;;5052542;28;20056;-81
2021/05/16 03:01:24;;;;;;;19.00;12.63;;;;;;;;;;5052408;28;20215;-81
2021/05/16 03:03:50;;;;;;;22.00;13.60;;;;;;;;;;5052262;28;20048;-81
2021/05/16 03:06:17;;;;;;;23.77;13.73;;;;;;;;;;5053323;28;20040;-81
2021/05/16 03:08:43;;;;;;;20.73;13.20;;;;;;;;;;5053428;28;20037;-81
2021/05/16 03:11:09;;;;;;;21.52;14.20;;;;;;;;;;5053266;28;20060;-81
2021/05/16 03:13:35;;;;;;;20.58;13.52;;;;;;;;;;5053156;28;20411;-82
2021/05/16 03:16:01;;;;;;;22.45;14.38;;;;;;;;;;5052064;28;20123;-82
2021/05/16 03:18:27;;;;;;;22.42;14.30;;;;;;;;;;5053085;28;20037;-82
2021/05/16 03:20:53;;;;;;;22.08;14.73;;;;;;;;;;5052377;28;20252;-82
2021/05/16 03:23:19;;;;;;;23.85;14.25;;;;;;;;;;5052000;28;20037;-81
2021/05/16 03:25:46;;;;;;;22.98;14.13;;;;;;;;;;5051709;28;20507;-81
2021/05/16 03:28:12;;;;;;;21.80;14.18;;;;;;;;;;5052913;28;20045;-81
2021/05/16 03:30:38;;;;;;;22.10;14.70;;;;;;;;;;5052850;28;20530;-81
2021/05/16 03:33:04;;;;;;;21.42;14.23;;;;;;;;;;5052996;28;20048;-81
2021/05/16 03:35:30;;;;;;;23.10;13.85;;;;;;;;;;5035359;28;20143;-81
2021/05/16 03:37:56;;;;;;;21.98;14.05;;;;;;;;;;5052753;28;20106;-82
2021/05/16 03:40:22;;;;;;;23.98;14.75;;;;;;;;;;5052475;28;20064;-81
2021/05/16 03:42:48;;;;;;;21.48;14.27;;;;;;;;;;5052851;28;20072;-82
2021/05/16 03:45:14;;;;;;;24.38;14.43;;;;;;;;;;5052569;28;20037;-82
2021/05/16 03:47:40;;;;;;;25.33;15.48;;;;;;;;;;5052652;28;20037;-82
2021/05/16 03:50:13;;;;;;;22.10;13.18;;;;;;;;;;5052664;28;20063;-82
2021/05/16 03:52:42;;;;;;;26.42;15.63;;;;;;;;;;5051379;28;20045;-81
2021/05/16 03:55:08;;;;;;;22.13;14.65;;;;;;;;;;5052528;28;20051;-82
2021/05/16 03:57:34;;;;;;;22.67;14.10;;;;;;;;;;5034879;28;20513;-82
2021/05/16 04:00:00;;;;;;;24.27;15.25;;;;;;;;;;5051243;28;20037;-82
2021/05/16 04:02:26;;;;;;;26.30;15.23;;;;;;;;;;5052361;28;20124;-82
2021/05/16 04:04:53;;;;;;;25.90;15.05;;;;;;;;;;5052242;28;20543;-81
2021/05/16 04:07:20;;;;;;;25.35;15.00;;;;;;;;;;5052337;28;20037;-82
2021/05/16 04:09:47;;;;;;;24.92;14.90;;;;;;;;;;5052318;28;20441;-80
2021/05/16 04:12:13;;;;;;;27.17;14.57;;;;;;;;;;5052241;28;20060;-82
2021/05/16 04:14:39;;;;;;;20.70;10.88;;;;;;;;;;5052122;28;20045;-82
2021/05/16 04:17:05;;;;;;;22.35;13.70;;;;;;;;;;5052233;28;20591;-82
2021/05/16 04:19:31;;;;;;;27.55;14.02;;;;;;;;;;5067882;28;20037;-82
2021/05/16 04:21:57;;;;;;;24.65;13.73;;;;;;;;;;5067592;28;20045;-82
2021/05/16 04:24:23;;;;;;;25.80;13.65;;;;;;;;;;5050883;28;20033;-82
2021/05/16 04:26:49;;;;;;;26.73;13.75;;;;;;;;;;5050847;28;20070;-82
2021/05/16 04:29:15;;;;;;;23.20;13.38;;;;;;;;;;5051972;28;20040;-81
2021/05/16 04:31:41;;;;;;;27.70;13.73;;;;;;;;;;5051928;28;20033;-81
2021/05/16 04:34:07;;;;;;;22.50;11.45;;;;;;;;;;5067653;28;20494;-82
2021/05/16 04:36:33;;;;;;;24.50;13.30;;;;;;;;;;5052116;28;20036;-82
2021/05/16 04:39:00;;;;;;;25.00;11.63;;;;;;;;;;5051994;28;20036;-82
2021/05/16 04:41:26;;;;;;;29.13;14.23;;;;;;;;;;5051733;28;20135;-82
2021/05/16 04:43:52;;;;;;;21.63;10.27;;;;;;;;;;5033917;28;20049;-81
2021/05/16 04:46:18;;;;;;;26.17;12.68;;;;;;;;;;5050677;28;20041;-82
2021/05/16 04:48:44;;;;;;;24.27;12.20;;;;;;;;;;5050774;28;20108;-82
2021/05/16 04:51:10;;;;;;;26.58;12.20;;;;;;;;;;5051902;28;20048;-80
2021/05/16 04:53:37;;;;;;;22.75;11.90;;;;;;;;;;5051037;28;20033;-82
2021/05/16 04:56:03;;;;;;;23.73;11.43;;;;;;;;;;5051716;28;20047;-82
2021/05/16 04:58:29;;;;;;;23.45;11.70;;;;;;;;;;5050574;28;20512;-82
2021/05/16 05:00:56;;;;;;;23.90;13.07;;;;;;;;;;5067323;28;20056;-82
2021/05/16 05:03:23;;;;;;;24.10;12.90;;;;;;;;;;5050723;28;20072;-82
2021/05/16 05:05:53;;;;;;;29.15;12.90;;;;;;;;;;5050510;28;20041;-82
2021/05/16 05:08:21;;;;;;;33.08;15.10;;;;;;;;;;5034107;28;20116;-82
2021/05/16 05:10:47;;;;;;;36.17;15.70;;;;;;;;;;5050373;28;20037;-83
2021/05/16 05:13:13;;;;;;;32.47;14.40;;;;;;;;;;5051656;28;20033;-82
2021/05/16 05:15:39;;;;;;;36.25;16.05;;;;;;;;;;5033989;28;20037;-82
2021/05/16 05:18:05;;;;;;;34.15;16.25;;;;;;;;;;5050472;28;20029;-82
2021/05/16 05:20:32;;;;;;;40.13;15.35;;;;;;;;;;5067042;28;20443;-82
2021/05/16 05:22:58;;;;;;;33.17;16.67;;;;;;;;;;5050346;28;20041;-81
2021/05/16 05:25:24;;;;;;;34.38;16.40;;;;;;;;;;5051333;28;20041;-82
2021/05/16 05:27:50;;;;;;;35.83;17.00;;;;;;;;;;5050307;28;20222;-82
2021/05/16 05:30:16;;;;;;;35.28;16.33;;;;;;;;;;5051574;28;20505;-81
2021/05/16 05:32:42;;;;;;;39.22;17.80;;;;;;;;;;5051388;28;20520;-82
2021/05/16 05:35:08;;;;;;;35.22;16.15;;;;;;;;;;5051587;28;20041;-81
2021/05/16 05:37:34;;;;;;;35.33;15.85;;;;;;;;;;5051595;28;20033;-82
2021/05/16 05:40:00;;;;;;;34.22;16.15;;;;;;;;;;5051295;28;20037;-82
2021/05/16 05:42:26;;;;;;;32.60;15.05;;;;;;;;;;5050549;28;20059;-83
2021/05/16 05:44:53;;;;;;;38.22;16.25;;;;;;;;;;5053762;28;20045;-82
2021/05/16 05:47:19;;;;;;;34.28;16.23;;;;;;;;;;5053619;28;20116;-82
2021/05/16 05:49:45;;;;;;;33.95;16.35;;;;;;;;;;5054769;28;20037;-82
2021/05/16 05:52:11;;;;;;;32.75;16.45;;;;;;;;;;5054814;28;20037;-82
2021/05/16 05:54:37;;;;;;;31.92;14.98;;;;;;;;;;5037085;28;20508;-82
2021/05/16 05:57:04;;;;;;;28.63;14.77;;;;;;;;;;5037075;28;20439;-81
2021/05/16 05:59:31;;;;;;;25.63;14.13;;;;;;;;;;5054717;28;20218;-83
2021/05/16 06:01:57;;;;;;;29.33;15.38;;;;;;;;;;5053449;28;20033;-81
2021/05/16 06:04:24;;;;;;;30.45;14.15;;;;;;;;;;5070027;28;20464;-83
2021/05/16 06:06:50;;;;;;;31.30;15.38;;;;;;;;;;5069888;28;20053;-83
2021/05/16 06:09:18;;;;;;;29.70;14.45;;;;;;;;;;5053245;28;20045;-83
2021/05/16 06:11:43;;;;;;;32.90;14.60;;;;;;;;;;5069911;28;20396;-82
2021/05/16 06:14:09;;;;;;;21.70;12.40;;;;;;;;;;5036875;28;20124;-83
2021/05/16 06:16:36;;;;;;;23.50;13.27;;;;;;;;;;5053093;28;20091;-83
2021/05/16 06:19:02;;;;;;;31.67;14.32;;;;;;;;;;5053154;28;20059;-83
2021/05/16 06:21:28;;;;;;;27.17;14.13;;;;;;;;;;5069612;28;20485;-82
2021/05/16 06:26:32;;;;;;;25.77;12.45;;;;;;;;;;5053040;28;20345;-82
2021/05/16 06:28:59;;;;;;;22.42;12.43;;;;;;;;;;5052991;28;20041;-82
2021/05/16 06:31:25;;;;;;;26.88;12.60;;;;;;;;;;5052972;28;20098;-82
2021/05/16 06:33:51;;;;;;;22.05;12.55;;;;;;;;;;5054168;28;20040;-82
2021/05/16 06:36:17;;;;;;;23.15;12.75;;;;;;;;;;5036101;28;20090;-84
2021/05/16 06:38:43;;;;;;;24.83;12.68;;;;;;;;;;5052731;28;20037;-83
2021/05/16 06:41:18;;;;;;;27.05;12.85;;;;;;;;;;5037188;28;20048;-84
2021/05/16 06:43:45;;;;;;;20.90;12.05;;;;;;;;;;5053752;28;20037;-82
2021/05/16 06:46:11;;;;;;;24.88;12.63;;;;;;;;;;5019729;28;20397;-83
2021/05/16 06:48:37;;;;;;;21.35;12.07;;;;;;;;;;5052634;28;20037;-85
2021/05/16 06:51:07;;;;;;;23.15;11.95;;;;;;;;;;5054012;28;20044;-83
2021/05/16 06:53:33;;;;;;;18.00;9.20;;;;;;;;;;5052113;28;20041;-84
2021/05/16 06:55:59;;;;;;;19.65;11.45;;;;;;;;;;5035299;28;20332;-84
2021/05/16 06:58:25;;;;;;;20.27;11.43;;;;;;;;;;5052455;28;20037;-84
2021/05/16 07:00:51;;;;;;;21.35;11.65;;;;;;;;;;5052245;28;20037;-83
2021/05/16 07:03:17;;;;;;;23.42;12.43;;;;;;;;;;5052173;28;20033;-86
2021/05/16 07:05:43;;;;;;;24.95;12.27;;;;;;;;;;5071002;28;20094;-83
2021/05/16 07:08:09;;;;;;;20.83;11.38;;;;;;;;;;5035911;28;20090;-82
2021/05/16 07:10:36;;;;;;;26.50;12.35;;;;;;;;;;5052597;28;20114;-82
2021/05/16 07:13:02;;;;;;;17.83;10.60;;;;;;;;;;5035545;28;20478;-82
2021/05/16 07:15:28;;;;;;;22.60;12.07;;;;;;;;;;5052026;28;20045;-82
2021/05/16 07:17:54;;;;;;;27.65;13.05;;;;;;;;;;5052995;28;20037;-82
2021/05/16 07:20:20;;;;;;;25.83;12.15;;;;;;;;;;5053182;28;20116;-83
2021/05/16 07:22:46;;;;;;;20.42;11.20;;;;;;;;;;5052005;28;20037;-81
2021/05/16 07:25:13;;;;;;;23.05;11.82;;;;;;;;;;5052009;28;20124;-82
2021/05/16 07:27:39;;;;;;;23.02;11.48;;;;;;;;;;5051891;28;20048;-83
2021/05/16 07:30:06;;;;;;;18.35;10.30;;;;;;;;;;5051812;28;20082;-83
2021/05/16 07:32:32;;;;;;;18.27;9.90;;;;;;;;;;5052630;28;20060;-81
2021/05/16 07:34:58;;;;;;;15.40;9.32;;;;;;;;;;5035101;28;20045;-81
2021/05/16 07:37:24;;;;;;;17.42;9.27;;;;;;;;;;5068010;28;20052;-82
2021/05/16 07:39:50;;;;;;;14.63;8.55;;;;;;;;;;5052535;28;20037;-81
2021/05/16 07:42:16;;;;;;;18.83;8.73;;;;;;;;;;5051160;28;20080;-82
2021/05/16 07:44:43;;;;;;;14.63;7.38;;;;;;;;;;5034982;28;20037;-83
2021/05/16 07:47:09;;;;;;;12.73;6.28;;;;;;;;;;5052388;28;20044;-83
2021/05/16 07:49:35;;;;;;;11.00;4.85;;;;;;;;;;5051334;28;20033;-83
2021/05/16 07:52:01;;;;;;;10.93;5.53;;;;;;;;;;5052391;28;20041;-82
2021/05/16 07:54:27;;;;;;;16.10;5.43;;;;;;;;;;5051116;28;20045;-84
2021/05/16 07:56:54;;;;;;;14.52;5.57;;;;;;;;;;5051058;28;20393;-84
2021/05/16 07:59:20;;;;;;;13.15;6.22;;;;;;;;;;5050871;28;20391;-86
2021/05/16 08:01:49;;;;;;;13.70;5.65;;;;;;;;;;5034949;28;20050;-88
2021/05/16 08:04:15;;;;;;;11.73;6.10;;;;;;;;;;5034589;28;20037;-88
2021/05/16 08:06:41;;;;;;;14.00;6.85;;;;;;;;;;5050786;28;20469;-88
2021/05/16 08:09:07;;;;;;;18.98;7.55;;;;;;;;;;5034526;28;20041;-87
2021/05/16 08:11:33;;;;;;;15.38;6.47;;;;;;;;;;5034473;28;20043;-88
2021/05/16 08:13:59;;;;;;;15.90;7.07;;;;;;;;;;5034529;28;20108;-87
2021/05/16 08:16:26;;;;;;;16.60;6.95;;;;;;;;;;5034178;28;20053;-87
2021/05/16 08:18:52;;;;;;;15.60;6.85;;;;;;;;;;5052158;28;20479;-87
2021/05/16 08:21:19;;;;;;;14.23;5.40;;;;;;;;;;5050809;28;20064;-86
2021/05/16 08:23:45;;;;;;;11.27;5.80;;;;;;;;;;5034341;28;20408;-86
2021/05/16 08:26:11;;;;;;;12.35;5.03;;;;;;;;;;5050645;28;20120;-86
2021/05/16 08:28:37;;;;;;;11.98;5.53;;;;;;;;;;5033997;28;20127;-87
2021/05/16 08:31:03;;;;;;;14.70;5.13;;;;;;;;;;5034137;28;20037;-88
2021/05/16 08:33:29;;;;;;;12.38;6.13;;;;;;;;;;5050532;28;20041;-87
2021/05/16 08:35:55;;;;;;;10.15;5.10;;;;;;;;;;5050521;28;20403;-83
2021/05/16 08:38:21;;;;;;;12.52;4.35;;;;;;;;;;5051676;28;20037;-83
2021/05/16 08:40:47;;;;;;;13.98;4.63;;;;;;;;;;5033784;28;20049;-83
2021/05/16 08:43:13;;;;;;;11.65;4.45;;;;;;;;;;5051746;28;20045;-84
2021/05/16 08:45:41;;;;;;;9.57;4.88;;;;;;;;;;5051540;28;20446;-84
2021/05/16 08:48:07;;;;;;;7.72;4.32;;;;;;;;;;5050395;28;20472;-84
2021/05/16 08:50:33;;;;;;;9.23;4.40;;;;;;;;;;5033906;28;20033;-86
2021/05/16 08:52:59;;;;;;;11.93;4.53;;;;;;;;;;5033955;28;20435;-82
2021/05/16 08:55:27;;;;;;;9.38;4.15;;;;;;;;;;5051619;28;20036;-82
2021/05/16 08:57:53;;;;;;;7.57;3.08;;;;;;;;;;5034010;28;20037;-82
2021/05/16 09:00:19;;;;;;;6.95;3.65;;;;;;;;;;5051493;28;20047;-82
2021/05/16 09:02:58;;;;;;;13.90;3.92;;;;;;;;;;5033631;28;20041;-81
2021/05/16 09:05:25;;;;;;;8.43;3.13;;;;;;;;;;5049589;28;20076;-81
2021/05/16 09:07:58;;;;;;;7.45;2.65;;;;;;;;;;5066903;28;20110;-81
2021/05/16 09:10:24;;;;;;;;;;;;;;;;;;5050285;28;20044;-81
2021/05/16 09:12:51;;;;;;;6.97;2.90;;;;;;;;;;5050483;28;19966;-81
2021/05/16 09:15:21;;;;;;;4.32;2.95;;;;;;;;;;5065986;28;20044;-81
2021/05/16 09:17:51;;;;;;;4.38;2.30;;;;;;;;;;5035046;28;20037;-81
2021/05/16 09:20:23;;;;;;;3.75;2.10;;;;;;;;;;5054679;28;20120;-81
2021/05/16 09:22:49;;;;;;;4.05;2.35;;;;;;;;;;5054066;28;20037;-81
2021/05/16 09:25:19;;;;;;;5.53;2.33;;;;;;;;;;5055424;28;20045;-81
2021/05/16 09:27:49;;;;;;;4.95;2.53;;;;;;;;;;5055225;28;20045;-83
2021/05/16 09:30:15;;;;;;;4.55;2.00;;;;;;;;;;5054092;28;20047;-82
2021/05/16 09:32:55;;;;;;;9.27;3.72;;;;;;;;;;5053939;28;20120;-81
2021/05/16 09:35:27;;;;;;;6.07;3.63;;;;;;;;;;5054947;28;20040;-81
2021/05/16 09:38:00;;;;;;;8.48;3.95;;;;;;;;;;5054981;28;20043;-81
2021/05/16 09:40:26;;;;;;;5.55;3.28;;;;;;;;;;5054842;28;20037;-82
2021/05/16 09:43:08;;;;;;;5.18;2.65;;;;;;;;;;5053814;28;20048;-81
2021/05/16 09:45:44;;;;;;;7.43;3.40;;;;;;;;;;5053658;28;20481;-82
2021/05/16 09:48:17;;;;;;;8.15;4.43;;;;;;;;;;5053525;28;20116;-82
2021/05/16 09:50:43;;;;;;;6.93;3.53;;;;;;;;;;5054748;28;20116;-82
2021/05/16 09:53:10;;;;;;;5.93;3.45;;;;;;;;;;5049966;28;20116;-82
2021/05/16 09:55:37;;;;;;;6.85;4.00;;;;;;;;;;5053492;28;20045;-82
2021/05/16 09:58:03;;;;;;;6.53;3.47;;;;;;;;;;5053279;28;20055;-83
2021/05/16 10:00:29;;;;;;;7.55;3.55;;;;;;;;;;5054347;28;20435;-82
2021/05/16 10:02:55;;;;;;;6.10;3.95;;;;;;;;;;5054458;28;20029;-82
2021/05/16 10:05:21;;;;;;;8.60;4.07;;;;;;;;;;5054349;28;20041;-83
2021/05/16 10:07:47;;;;;;;5.50;3.67;;;;;;;;;;5053339;28;20396;-83
2021/05/16 10:10:15;;;;;;;9.00;3.38;;;;;;;;;;5053169;28;20048;-82
2021/05/16 10:12:41;;;;;;;4.50;3.15;;;;;;;;;;5054320;28;20106;-83
2021/05/16 10:15:23;;;;;;;5.47;3.10;;;;;;;;;;5036718;28;20439;-82
2021/05/16 10:17:50;;;;;;;4.15;2.45;;;;;;;;;;5054320;28;20491;-82
2021/05/16 10:20:17;;;;;;;3.42;2.47;;;;;;;;;;5053157;28;20037;-83
2021/05/16 10:22:53;;;;;;;4.60;2.70;;;;;;;;;;5053105;28;20037;-83
2021/05/16 10:25:38;;;;;;;3.15;2.58;;;;;;;;;;5052856;28;20515;-83
2021/05/16 10:28:04;;;;;;;3.38;2.42;;;;;;;;;;5053803;28;20041;-81
2021/05/16 10:30:30;;;;;;;8.07;2.20;;;;;;;;;;5052839;28;20044;-82
2021/05/16 10:32:56;;;;;;;6.93;1.98;;;;;;;;;;5052963;28;20082;-82
2021/05/16 10:35:23;;;;;;;2.95;1.55;;;;;;;;;;5053031;28;20473;-84
2021/05/16 10:37:54;;;;;;;2.95;1.67;;;;;;;;;;5052986;28;20068;-84
2021/05/16 10:40:20;;;;;;;2.67;1.60;;;;;;;;;;5052764;28;20044;-81
2021/05/16 10:42:46;;;;;;;5.38;2.38;;;;;;;;;;5054016;28;20443;-81
2021/05/16 10:45:16;;;;;;;5.50;2.03;;;;;;;;;;5053707;28;20083;-81
2021/05/16 10:47:47;;;;;;;4.30;1.60;;;;;;;;;;5053661;28;20063;-82
2021/05/16 10:50:19;;;;;;;4.32;1.40;;;;;;;;;;5053704;28;20037;-83
2021/05/16 10:53:04;;;;;;;3.65;1.52;;;;;;;;;;5053697;28;20116;-81
2021/05/16 10:55:37;;;;;;;2.00;0.90;;;;;;;;;;5053631;28;20045;-81
2021/05/16 10:58:03;;;;;;;1.73;0.98;;;;;;;;;;5052444;28;20041;-81
2021/05/16 11:00:30;;;;;;;4.50;0.90;;;;;;;;;;5052431;28;20235;-82
2021/05/16 11:02:59;;;;;;;3.85;0.90;;;;;;;;;;5050753;28;20543;-81
2021/05/16 11:05:51;;;;;;;4.13;1.15;;;;;;;;;;5053339;28;20473;-81
2021/05/16 11:08:20;;;;;;;2.10;0.85;;;;;;;;;;5053455;28;20091;-81
2021/05/16 11:10:47;;;;;;;2.95;1.20;;;;;;;;;;5053139;28;20044;-81
2021/05/16 11:13:13;;;;;;;5.32;1.42;;;;;;;;;;5053075;28;20036;-81
2021/05/16 11:15:46;;;;;;;1.85;1.10;;;;;;;;;;5053230;28;20538;-82
2021/05/16 11:18:17;;;;;;;4.10;1.00;;;;;;;;;;5051779;28;20033;-81
2021/05/16 11:20:43;;;;;;;1.83;0.90;;;;;;;;;;5053158;28;20476;-81
2021/05/16 11:23:09;;;;;;;3.63;0.90;;;;;;;;;;5051806;28;20040;-81
2021/05/16 11:25:35;;;;;;;1.92;1.23;;;;;;;;;;5052950;28;20041;-81
2021/05/16 11:28:10;;;;;;;3.83;1.33;;;;;;;;;;5052781;28;20377;-81
2021/05/16 11:30:36;;;;;;;3.30;1.90;;;;;;;;;;5051441;28;20078;-81
2021/05/16 11:33:02;;;;;;;7.60;1.60;;;;;;;;;;5051690;28;20037;-81
2021/05/16 11:35:28;;;;;;;6.88;1.67;;;;;;;;;;5052813;28;20045;-81
2021/05/16 11:37:58;;;;;;;5.57;1.52;;;;;;;;;;5051512;28;20056;-81
2021/05/16 11:40:28;;;;;;;4.07;1.67;;;;;;;;;;5051735;28;20119;-81
2021/05/16 11:42:58;;;;;;;5.05;1.38;;;;;;;;;;5052869;28;20099;-81
2021/05/16 11:45:27;;;;;;;2.88;1.25;;;;;;;;;;5051007;28;20098;-81
2021/05/16 11:47:53;;;;;;;5.45;1.70;;;;;;;;;;5051240;28;20034;-81
2021/05/16 11:50:19;;;;;;;3.55;1.20;;;;;;;;;;5052346;28;20163;-81
2021/05/16 11:52:46;;;;;;;4.28;1.20;;;;;;;;;;5051007;28;20040;-81
2021/05/16 11:55:12;;;;;;;5.40;1.20;;;;;;;;;;5052318;28;20045;-81
2021/05/16 11:57:42;;;;;;;4.82;1.05;;;;;;;;;;5051088;28;20492;-83
2021/05/16 12:00:09;;;;;;;4.28;1.08;;;;;;;;;;5051312;28;20142;-81
2021/05/16 12:02:36;;;;;;;1.25;0.80;;;;;;;;;;5051237;28;20537;-81
2021/05/16 12:05:02;;;;;;;2.80;0.80;;;;;;;;;;5051161;28;20090;-81
2021/05/16 12:07:31;;;;;;;2.15;1.08;;;;;;;;;;5052132;28;20033;-81
2021/05/16 12:09:57;;;;;;;2.75;1.15;;;;;;;;;;5051158;28;20040;-81
2021/05/16 12:12:25;;;;;;;1.42;0.98;;;;;;;;;;5052357;28;20033;-81
2021/05/16 12:14:53;;;;;;;1.90;0.73;;;;;;;;;;5034876;28;20068;-82
2021/05/16 12:17:21;;;;;;;2.97;0.80;;;;;;;;;;5018642;28;20049;-81
2021/05/16 12:19:47;;;;;;;1.70;1.00;;;;;;;;;;5050893;28;20043;-81
2021/05/16 12:22:13;;;;;;;1.92;0.90;;;;;;;;;;5052104;28;20473;-81
2021/05/16 12:24:46;;;;;;;2.67;1.00;;;;;;;;;;5050859;28;20504;-81
2021/05/16 12:27:12;;;;;;;3.10;1.15;;;;;;;;;;5051976;28;20036;-81
2021/05/16 12:29:40;;;;;;;1.45;0.85;;;;;;;;;;5052066;28;20049;-81
2021/05/16 12:32:06;;;;;;;1.65;1.00;;;;;;;;;;5052004;28;20400;-81
2021/05/16 12:34:32;;;;;;;2.15;1.00;;;;;;;;;;5051836;28;20157;-81
2021/05/16 12:37:05;;;;;;;5.47;1.10;;;;;;;;;;5050749;28;20480;-80
2021/05/16 12:39:44;;;;;;;2.72;0.80;;;;;;;;;;5049629;28;20033;-81
2021/05/16 12:42:45;;;;;;;3.20;1.33;;;;;;;;;;5051674;28;20098;-82
2021/05/16 12:45:24;;;;;;;1.60;1.02;;;;;;;;;;5013301;28;20124;-82
2021/05/16 12:48:10;;;;;;;1.33;0.73;;;;;;;;;;5029966;28;20057;-82
2021/05/16 12:50:43;;;;;;;2.70;0.80;;;;;;;;;;5050579;28;20044;-81
2021/05/16 12:53:25;;;;;;;3.17;0.95;;;;;;;;;;5053911;28;20045;-81
2021/05/16 12:55:52;;;;;;;2.75;0.90;;;;;;;;;;5055861;28;20044;-81
2021/05/16 12:58:40;;;;;;;4.22;1.10;;;;;;;;;;5055566;28;20116;-81
2021/05/16 13:01:06;;;;;;;2.47;0.80;;;;;;;;;;5054693;28;20039;-81
2021/05/16 13:03:33;;;;;;;2.03;0.93;;;;;;;;;;5054205;28;20076;-82
2021/05/16 13:06:00;;;;;;;3.55;1.35;;;;;;;;;;5055115;28;20041;-80
2021/05/16 13:08:33;;;;;;;5.15;1.20;;;;;;;;;;5054039;28;20474;-80
2021/05/16 13:10:59;;;;;;;2.58;1.20;;;;;;;;;;5037543;28;20039;-80
2021/05/16 13:13:32;;;;;;;3.03;1.27;;;;;;;;;;5054122;28;20116;-80
2021/05/16 13:16:01;;;;;;;5.13;1.20;;;;;;;;;;5055236;28;20037;-80
2021/05/16 13:18:35;;;;;;;2.85;0.95;;;;;;;;;;5053987;28;20639;-80
2021/05/16 13:21:10;;;;;;;1.70;0.77;;;;;;;;;;5053927;28;20041;-81
2021/05/16 13:23:36;;;;;;;2.08;0.80;;;;;;;;;;5053856;28;20060;-83
2021/05/16 13:26:02;;;;;;;2.40;0.90;;;;;;;;;;5053799;28;20092;-84
2021/05/16 13:28:29;;;;;;;2.63;0.90;;;;;;;;;;5054031;28;20041;-82
2021/05/16 13:30:56;;;;;;;5.43;0.98;;;;;;;;;;5055095;28;20404;-82
2021/05/16 13:33:29;;;;;;;2.65;0.90;;;;;;;;;;5054051;28;20087;-82
2021/05/16 13:35:55;;;;;;;3.10;0.80;;;;;;;;;;5052962;28;20044;-83
2021/05/16 13:38:21;;;;;;;2.35;0.93;;;;;;;;;;5053315;28;20127;-82
2021/05/16 13:40:47;;;;;;;2.95;0.80;;;;;;;;;;5053363;28;20056;-83
2021/05/16 13:43:16;;;;;;;3.20;0.85;;;;;;;;;;5053514;28;20037;-81
2021/05/16 13:45:42;;;;;;;2.97;1.05;;;;;;;;;;5053451;28;20045;-80
2021/05/16 13:48:08;;;;;;;1.33;0.60;;;;;;;;;;5053298;28;20087;-81
2021/05/16 13:50:34;;;;;;;4.18;0.80;;;;;;;;;;5036857;28;20115;-81
2021/05/16 13:53:00;;;;;;;2.40;0.68;;;;;;;;;;5054515;28;20071;-81
2021/05/16 13:55:26;;;;;;;3.22;0.60;;;;;;;;;;5054601;28;20087;-81
2021/05/16 13:57:52;;;;;;;1.40;0.60;;;;;;;;;;5052783;28;20120;-81
2021/05/16 14:00:18;;;;;;;2.00;0.90;;;;;;;;;;5053107;28;20072;-81
2021/05/16 14:02:44;;;;;;;2.38;0.80;;;;;;;;;;5021679;28;20481;-81
2021/05/16 14:05:10;;;;;;;2.72;0.70;;;;;;;;;;5033810;28;20041;-82
2021/05/16 14:07:36;;;;;;;3.05;0.90;;;;;;;;;;5033129;28;20121;-81
2021/05/16 14:10:02;;;;;;;3.60;1.00;;;;;;;;;;5034234;28;20037;-81
2021/05/16 14:12:28;;;;;;;2.95;1.20;;;;;;;;;;5034079;28;20045;-82
2021/05/16 14:14:54;;;;;;;2.70;0.93;;;;;;;;;;5034341;28;20034;-82
2021/05/16 14:17:20;;;;;;;3.67;1.00;;;;;;;;;;5034102;28;20037;-81
2021/05/16 14:19:48;;;;;;;3.05;1.38;;;;;;;;;;5032895;28;20042;-81
2021/05/16 14:22:14;;;;;;;4.20;1.15;;;;;;;;;;5032794;28;20095;-82
2021/05/16 14:24:40;;;;;;;5.13;1.40;;;;;;;;;;5033901;28;20045;-82
2021/05/16 14:27:06;;;;;;;3.50;1.30;;;;;;;;;;5032602;28;20044;-82
2021/05/16 14:29:33;;;;;;;4.32;1.15;;;;;;;;;;5033873;28;20041;-82
2021/05/16 14:31:59;;;;;;;3.03;1.00;;;;;;;;;;5034054;28;20116;-82
2021/05/16 14:34:25;;;;;;;3.58;1.00;;;;;;;;;;5032938;28;20439;-82